You are not logged in, Click here to log in
廈門高崎國際機場XMN / ZSAM 中國福建省廈門島東北端
ICAO: ZSAM Country: 中國福建省廈門島東北端
Latitude: 24.5391 Longitude: 118.134
Total Arrivals: 60 Total Departures: 57
Latest Arrival: CA1815 (ZBAA-ZSAM)Arthur. Kung Latest Departure: JXM63 (ZSAM-RCKH)Arthur. Kung
Scenery:
METAR : ZSAM 071300Z 21003MPS CAVOK 30/24 Q1007 NOSIG

廈門高崎國際機場XMN